
Distance (Route):
Temperature : 0.3°C
Humidity : 5.7%
Pressure : 0hPa| Receiver | Date | Latitude | Longitude | Direction | Speed | Altitude | Climb | Temperature | Humidity | Pressure | Voltage | Killtimer | Uptime | BKT | XDATA |
|---|---|---|---|---|---|---|---|---|---|---|---|---|---|---|---|
| IW2NTF | 2026-09-04 00:49:45 | 44.01889 | 11.99242 | 161° | 46km/h | 4517m | -20.2m/s | 0.3°C | 5.7% | 0hPa | 2.6V | 08:30:00 | 02:15:55 | 00:00:00 | |
| IW2NTF | 2026-09-04 00:46:36 | 44.04494 | 11.97826 | 160° | 66km/h | 7973m | -20.5m/s | -22.5°C | 50.1% | 0hPa | 2.6V | 08:30:00 | 02:12:45 | 00:00:00 | |
| IW2NTF | 2026-09-04 00:46:25 | 44.04650 | 11.97748 | 159° | 64km/h | 8161m | -19.3m/s | -23.8°C | 45% | 0hPa | 2.6V | 08:30:00 | 02:12:35 | 00:00:00 | |
| IW2NTF | 2026-09-04 00:46:15 | 44.04803 | 11.97667 | 158° | 66km/h | 8345m | -20.1m/s | -25.2°C | 43.5% | 0hPa | 2.5V | 08:30:00 | 02:12:25 | 00:00:00 | |
| DO3MHA-11 | 2026-09-04 00:37:34 | 44.13203 | 11.93013 | 235° | 4km/h | 20196m | -35.5m/s | -56.2°C | 4.7% | 0hPa | 2.6V | 00:00:00 | 02:03:49 | 00:00:00 | |
| DO3MHA-11 | 2026-09-04 00:37:23 | 44.13182 | 11.92999 | 238° | 11km/h | 20643m | -37.4m/s | -55.9°C | 4.8% | 0hPa | 2.6V | 00:00:00 | 02:03:38 | 00:00:00 | |
| DO3MHA-11 | 2026-09-04 00:37:05 | 44.13177 | 11.92968 | 134° | 11km/h | 21364m | -38.8m/s | -55.1°C | 4.5% | 0hPa | 2.6V | 00:00:00 | 02:03:20 | 00:00:00 | |
| DO3MHA-11 | 2026-09-04 00:36:55 | 44.13227 | 11.93001 | 252° | 4km/h | 21751m | -39.3m/s | -54.8°C | 4.6% | 0hPa | 2.6V | 00:00:00 | 02:03:10 | 00:00:00 | |
| DO3MHA-11 | 2026-09-04 00:35:23 | 44.13236 | 11.93097 | 132° | 7km/h | 25912m | -59.2m/s | -49.4°C | 3.9% | 0hPa | 2.6V | 00:00:00 | 02:01:38 | 00:00:00 | |
| DO3MHA-11 | 2026-09-04 00:33:26 | 44.13048 | 11.93338 | 79° | 5km/h | 28461m | 5.5m/s | -45.7°C | 3.1% | 0hPa | 2.6V | 00:00:00 | 01:59:41 | 00:00:00 | |
| DO3MHA-11 | 2026-09-04 00:33:16 | 44.13036 | 11.93336 | 11° | 11km/h | 28404m | 5.4m/s | -45.3°C | 2.9% | 0hPa | 2.6V | 00:00:00 | 01:59:31 | 00:00:00 | |
| DO3MHA-11 | 2026-09-04 00:33:06 | 44.13019 | 11.93328 | 214° | 7km/h | 28347m | 5.5m/s | -45.2°C | 2.9% | 0hPa | 2.6V | 00:00:00 | 01:59:21 | 00:00:00 | |
| DO3MHA-11 | 2026-09-04 00:32:56 | 44.13006 | 11.93324 | 326° | 7km/h | 28289m | 6.4m/s | -45.4°C | 2.9% | 0hPa | 2.6V | 00:00:00 | 01:59:11 | 08:30:00 | |
| DO3MHA-11 | 2026-09-04 00:32:46 | 44.12991 | 11.93338 | 356° | 9km/h | 28235m | 4.9m/s | -45.6°C | 3.0% | 0hPa | 2.5V | 00:00:00 | 01:59:01 | 00:00:00 | |
| DO3MHA-11 | 2026-09-04 00:32:35 | 44.12971 | 11.93325 | 37° | 11km/h | 28173m | 5.5m/s | -45.8°C | 3.0% | 0hPa | 2.5V | 00:00:00 | 01:58:50 | 00:00:00 | |
| DO3MHA-11 | 2026-09-04 00:32:24 | 44.12939 | 11.93314 | 27° | 24km/h | 28110m | 5.7m/s | -46.2°C | 3.1% | 0hPa | 2.5V | 00:00:00 | 01:58:39 | 00:00:00 | |
| DO3MHA-11 | 2026-09-04 00:32:14 | 44.12886 | 11.93283 | 10° | 15km/h | 28053m | 4.9m/s | -46.0°C | 3.0% | 0hPa | 2.5V | 00:00:00 | 01:58:29 | 00:00:00 | |
| DO3MHA-11 | 2026-09-04 00:31:21 | 44.12732 | 11.93300 | 348° | 13km/h | 27748m | 5.5m/s | -46.8°C | 3.3% | 0hPa | 2.5V | 00:00:00 | 01:57:36 | 00:00:00 | |
| DO3MHA-11 | 2026-09-04 00:31:11 | 44.12700 | 11.93295 | 351° | 15km/h | 27691m | 4.8m/s | -46.6°C | 3.2% | 0hPa | 2.5V | 00:00:00 | 01:57:26 | 00:00:00 | |
| DO3MHA-11 | 2026-09-04 00:30:51 | 44.12618 | 11.93322 | 352° | 16km/h | 27576m | 4.9m/s | -46.0°C | 3.1% | 0hPa | 2.6V | 00:00:00 | 01:57:06 | 00:00:00 | |
| DO3MHA-11 | 2026-09-04 00:30:31 | 44.12536 | 11.93375 | 348° | 20km/h | 27462m | 5.4m/s | -45.9°C | 3.1% | 0hPa | 2.6V | 00:00:00 | 01:56:46 | 00:00:00 | |
| DO3MHA-11 | 2026-09-04 00:30:21 | 44.12493 | 11.93416 | 303° | 26km/h | 27405m | 4.8m/s | -45.8°C | 3.1% | 0hPa | 2.6V | 00:00:00 | 01:56:36 | 00:00:00 | |
| DO3MHA-11 | 2026-09-04 00:30:11 | 44.12440 | 11.93467 | 332° | 20km/h | 27348m | 5.3m/s | -45.7°C | 3.0% | 0hPa | 2.6V | 00:00:00 | 01:56:26 | 00:00:00 | |
| DO3MHA-11 | 2026-09-04 00:30:01 | 44.12412 | 11.93521 | 320° | 26km/h | 27288m | 6.2m/s | -46.1°C | 3.0% | 0hPa | 2.5V | 00:00:00 | 01:56:16 | 00:00:00 | |
| DO3MHA-11 | 2026-09-04 00:29:49 | 44.12364 | 11.93599 | 286° | 18km/h | 27219m | 5.4m/s | -46.6°C | 3.1% | 0hPa | 2.5V | 00:00:00 | 01:56:04 | 00:00:00 | |
| DO3MHA-11 | 2026-09-04 00:27:55 | 44.12627 | 11.93883 | 192° | 16km/h | 26550m | 5.2m/s | -49.3°C | 3.5% | 0hPa | 2.5V | 00:00:00 | 01:54:10 | 00:00:00 | |
| DO3MHA-11 | 2026-09-04 00:27:44 | 44.12669 | 11.93872 | 170° | 20km/h | 26484m | 6.5m/s | -49.4°C | 3.5% | 0hPa | 2.5V | 00:00:00 | 01:53:59 | 00:00:00 | |
| DO3MHA-11 | 2026-09-04 00:27:24 | 44.12750 | 11.93849 | 179° | 15km/h | 26369m | 6.0m/s | -49.4°C | 3.5% | 0hPa | 2.5V | 00:00:00 | 01:53:39 | 00:00:00 | |
| DO3MHA-11 | 2026-09-04 00:27:12 | 44.12786 | 11.93821 | 184° | 13km/h | 26302m | 4.6m/s | -49.5°C | 3.4% | 0hPa | 2.5V | 00:00:00 | 01:53:27 | 08:30:00 | |
| DO3MHA-11 | 2026-09-04 00:27:02 | 44.12800 | 11.93787 | 128° | 13km/h | 26247m | 4.7m/s | -49.8°C | 3.5% | 0hPa | 2.5V | 00:00:00 | 01:53:17 | 00:00:00 | |
| DO3MHA-11 | 2026-09-04 00:26:51 | 44.12829 | 11.93765 | 138° | 20km/h | 26187m | 5.1m/s | -50.2°C | 3.6% | 0hPa | 2.5V | 00:00:00 | 01:53:06 | 00:00:00 | |
| DO3MHA-11 | 2026-09-04 00:26:41 | 44.12836 | 11.93715 | 68° | 7km/h | 26132m | 5.1m/s | -50.3°C | 3.5% | 0hPa | 2.5V | 00:00:00 | 01:52:56 | 00:00:00 | |
| DO3MHA-11 | 2026-09-04 00:26:31 | 44.12832 | 11.93687 | 41° | 13km/h | 26077m | 5.0m/s | -50.6°C | 3.7% | 0hPa | 2.5V | 00:00:00 | 01:52:46 | 00:00:00 | |
| DO3MHA-11 | 2026-09-04 00:26:21 | 44.12802 | 11.93680 | 31° | 16km/h | 26023m | 4.8m/s | -50.9°C | 3.7% | 0hPa | 2.5V | 00:00:00 | 01:52:36 | 00:00:00 | |
| DO3MHA-11 | 2026-09-04 00:26:11 | 44.12761 | 11.93665 | 346° | 15km/h | 25967m | 4.9m/s | -51.1°C | 3.7% | 0hPa | 2.5V | 00:00:00 | 01:52:26 | 00:00:00 | |
| DO3MHA-11 | 2026-09-04 00:25:57 | 44.12717 | 11.93691 | 301° | 16km/h | 25888m | 5.8m/s | -51.4°C | 3.7% | 0hPa | 2.5V | 00:00:00 | 01:52:12 | 00:00:00 | |
| DO3MHA-11 | 2026-09-04 00:25:47 | 44.12691 | 11.93735 | 306° | 22km/h | 25833m | 4.6m/s | -52.0°C | 4.0% | 0hPa | 2.5V | 00:00:00 | 01:52:02 | 00:00:00 | |
| DO3MHA-11 | 2026-09-04 00:25:37 | 44.12689 | 11.93808 | 255° | 11km/h | 25780m | 4.9m/s | -51.8°C | 4.0% | 0hPa | 2.5V | 00:00:00 | 01:51:52 | 08:30:00 | |
| DO3MHA-11 | 2026-09-04 00:25:18 | 44.12692 | 11.93877 | 222° | 7km/h | 25675m | 5.1m/s | -51.1°C | 3.8% | 0hPa | 2.5V | 00:00:00 | 01:51:33 | 00:00:00 | |
| DO3MHA-11 | 2026-09-04 00:25:08 | 44.12705 | 11.93896 | 243° | 9km/h | 25620m | 4.7m/s | -51.2°C | 3.7% | 0hPa | 2.5V | 00:00:00 | 01:51:23 | 00:00:00 | |
| DO3MHA-11 | 2026-09-04 00:24:58 | 44.12704 | 11.93881 | 82° | 11km/h | 25565m | 4.6m/s | -51.3°C | 3.6% | 0hPa | 2.5V | 00:00:00 | 01:51:13 | 00:00:00 | |
| DO3MHA-11 | 2026-09-04 00:24:48 | 44.12690 | 11.93853 | 66° | 18km/h | 25511m | 4.6m/s | -52.3°C | 3.8% | 0hPa | 2.5V | 00:00:00 | 01:51:03 | 00:00:00 | |
| DO3MHA-11 | 2026-09-04 00:24:38 | 44.12680 | 11.93790 | 53° | 11km/h | 25454m | 5.7m/s | -52.7°C | 3.9% | 0hPa | 2.5V | 00:00:00 | 01:50:53 | 00:00:00 | |
| DO3MHA-11 | 2026-09-04 00:24:26 | 44.12656 | 11.93764 | 17° | 20km/h | 25384m | 4.8m/s | -53.2°C | 4.1% | 0hPa | 2.5V | 00:00:00 | 01:50:41 | 00:00:00 | |
| DO3MHA-11 | 2026-09-04 00:24:16 | 44.12602 | 11.93760 | 346° | 13km/h | 25328m | 5.7m/s | -53.1°C | 4.1% | 0hPa | 2.5V | 00:00:00 | 01:50:31 | 00:00:00 | |
| DO3MHA-11 | 2026-09-04 00:21:30 | 44.12576 | 11.94219 | 341° | 5km/h | 24396m | 6.0m/s | -52.6°C | 4.1% | 0hPa | 2.5V | 00:00:00 | 01:47:45 | 00:00:00 | |
| DO3MHA-11 | 2026-09-04 00:20:54 | 44.12532 | 11.94306 | 268° | 9km/h | 24198m | 3.9m/s | -52.7°C | 4.0% | 0hPa | 2.5V | 00:00:00 | 01:47:09 | 08:30:00 | |
| DO3MHA-11 | 2026-09-04 00:20:44 | 44.12539 | 11.94333 | 277° | 9km/h | 24144m | 4.8m/s | -53.0°C | 4.1% | 0hPa | 2.6V | 00:00:00 | 01:46:59 | 00:00:00 | |
| DO3MHA-11 | 2026-09-04 00:20:34 | 44.12518 | 11.94354 | 295° | 9km/h | 24090m | 5.1m/s | -53.2°C | 4.2% | 0hPa | 2.6V | 00:00:00 | 01:46:49 | 00:00:00 | |
| DO3MHA-11 | 2026-09-04 00:20:23 | 44.12501 | 11.94369 | 334° | 9km/h | 24028m | 4.6m/s | -53.0°C | 4.2% | 0hPa | 2.6V | 00:00:00 | 01:46:38 | 00:00:00 | |
| DO3MHA-11 | 2026-09-04 00:20:12 | 44.12499 | 11.94396 | 307° | 15km/h | 23967m | 6.3m/s | -52.7°C | 4.1% | 0hPa | 2.5V | 00:00:00 | 01:46:27 | 00:00:00 | |
| DO3MHA-11 | 2026-09-04 00:20:00 | 44.12495 | 11.94444 | 243° | 20km/h | 23900m | 5.6m/s | -52.5°C | 4.0% | 0hPa | 2.5V | 00:00:00 | 01:46:15 | 00:00:00 | |
| DO3MHA-11 | 2026-09-04 00:19:49 | 44.12511 | 11.94512 | 240° | 22km/h | 23841m | 5.3m/s | -52.3°C | 3.9% | 0hPa | 2.5V | 00:00:00 | 01:46:04 | 00:00:00 | |
| DO3MHA-11 | 2026-09-04 00:18:43 | 44.12609 | 11.94806 | 355° | 9km/h | 23484m | 5.0m/s | -53.1°C | 4.1% | 0hPa | 2.6V | 00:00:00 | 01:44:58 | 00:00:00 | |
| DO3MHA-11 | 2026-09-04 00:18:33 | 44.12577 | 11.94821 | 318° | 13km/h | 23431m | 5.4m/s | -52.9°C | 4.1% | 0hPa | 2.6V | 00:00:00 | 01:44:48 | 00:00:00 | |
| IW2NTF | 2026-09-04 00:15:23 | 44.12656 | 11.95225 | 145° | 11km/h | 22378m | 4.8m/s | -55.9°C | 4.4% | 0hPa | 2.6V | 08:30:00 | 01:41:36 | 00:00:00 | |
| DO3MHA-11 | 2026-09-04 00:15:18 | 44.12665 | 11.95217 | 140° | 5km/h | 22362m | 5.1m/s | -56.1°C | 4.6% | 0hPa | 2.6V | 00:00:00 | 01:41:33 | 08:30:00 | |
| IW2NTF | 2026-09-04 00:15:17 | 44.12674 | 11.95217 | 192° | 2km/h | 22312m | 6.2m/s | -56.1°C | 4.6% | 0hPa | 2.5V | 08:30:00 | 01:41:24 | 00:00:00 | |
| DO3MHA-11 | 2026-09-04 00:15:07 | 44.12676 | 11.95214 | 122° | 7km/h | 22302m | 4.9m/s | -56.1°C | 4.6% | 0hPa | 2.5V | 00:00:00 | 01:41:22 | 00:00:00 | |
| IW2NTF | 2026-09-04 00:15:03 | 44.12688 | 11.95199 | 118° | 16km/h | 22251m | 6.3m/s | -56.5°C | 4.7% | 0hPa | 2.5V | 08:30:00 | 01:41:12 | 00:00:00 | |
| DO3MHA-11 | 2026-09-04 00:14:57 | 44.12688 | 11.95199 | 119° | 11km/h | 22252m | 6.2m/s | -56.5°C | 4.7% | 0hPa | 2.5V | 00:00:00 | 01:41:12 | 00:00:00 | |
| DO3MHA-11 | 2026-09-04 00:14:47 | 44.12701 | 11.95156 | 66° | 16km/h | 22196m | 6.0m/s | -56.5°C | 4.7% | 0hPa | 2.5V | 00:00:00 | 01:41:02 | 00:00:00 | |
| DO3MHA-11 | 2026-09-04 00:14:37 | 44.12690 | 11.95105 | 86° | 13km/h | 22143m | 4.7m/s | -56.8°C | 4.9% | 0hPa | 2.6V | 00:00:00 | 01:40:52 | 00:00:00 | |
| DO3MHA-11 | 2026-09-04 00:14:27 | 44.12675 | 11.95065 | 60° | 9km/h | 22091m | 6.3m/s | -56.6°C | 4.9% | 0hPa | 2.6V | 00:00:00 | 01:40:42 | 00:00:00 | |
| DO3MHA-11 | 2026-09-04 00:14:17 | 44.12663 | 11.95040 | 8° | 5km/h | 22037m | 4.7m/s | -56.2°C | 4.8% | 0hPa | 2.6V | 00:00:00 | 01:40:32 | 00:00:00 | |
| DO3MHA-11 | 2026-09-04 00:14:07 | 44.12653 | 11.95034 | 79° | 5km/h | 21983m | 5.9m/s | -55.8°C | 4.7% | 0hPa | 2.5V | 00:00:00 | 01:40:22 | 00:00:00 | |
| DO3MHA-11 | 2026-09-04 00:13:57 | 44.12644 | 11.95036 | 317° | 7km/h | 21932m | 5.4m/s | -55.4°C | 4.6% | 0hPa | 2.5V | 00:00:00 | 01:40:12 | 00:00:00 | |
| IW2NTF | 2026-09-04 00:13:50 | 44.12630 | 11.95049 | 309° | 9km/h | 21879m | 6.2m/s | -55.2°C | 4.4% | 0hPa | 2.5V | 08:30:00 | 01:40:02 | 00:00:00 | |
| DO3MHA-11 | 2026-09-04 00:13:47 | 44.12630 | 11.95049 | 310° | 13km/h | 21879m | 6.2m/s | -55.2°C | 4.4% | 0hPa | 2.5V | 00:00:00 | 01:40:02 | 08:30:00 | |
| DO3MHA-11 | 2026-09-04 00:13:37 | 44.12618 | 11.95081 | 190° | 11km/h | 21826m | 5.4m/s | -55.5°C | 4.5% | 0hPa | 2.6V | 00:00:00 | 01:39:52 | 00:00:00 | |
| IW2NTF | 2026-09-04 00:13:35 | 44.12626 | 11.95089 | 261° | 16km/h | 21789m | 6m/s | -55.5°C | 4.4% | 0hPa | 2.6V | 08:30:00 | 01:39:45 | 00:00:00 | |
| DO3MHA-11 | 2026-09-04 00:13:27 | 44.12628 | 11.95110 | 264° | 9km/h | 21773m | 6.0m/s | -55.5°C | 4.4% | 0hPa | 2.7V | 00:00:00 | 01:39:42 | 00:00:00 | |
| IW2NTF | 2026-09-04 00:13:22 | 44.12634 | 11.95130 | 126° | 2km/h | 21737m | 4.7m/s | -56.2°C | 4.6% | 0hPa | 2.7V | 08:30:00 | 01:39:35 | 00:00:00 | |
| DO3MHA-11 | 2026-09-04 00:13:17 | 44.12635 | 11.95134 | 275° | 15km/h | 21722m | 5.4m/s | -56.3°C | 4.7% | 0hPa | 2.6V | 00:00:00 | 01:39:32 | 00:00:00 | |
| IW2NTF | 2026-09-04 00:13:10 | 44.12641 | 11.95194 | 228° | 13km/h | 21658m | 5.2m/s | -56.3°C | 4.8% | 0hPa | 2.7V | 08:30:00 | 01:39:19 | 00:00:00 | |
| DO3MHA-11 | 2026-09-04 00:13:07 | 44.12634 | 11.95186 | 218° | 13km/h | 21673m | 5.0m/s | -56.3°C | 4.7% | 0hPa | 2.5V | 00:00:00 | 01:39:22 | 00:00:00 | |
| IW2NTF | 2026-09-04 00:12:57 | 44.12668 | 11.95237 | 204° | 11km/h | 21598m | 4.6m/s | -56.2°C | 4.7% | 0hPa | 2.5V | 08:30:00 | 01:39:07 | 00:00:00 | |
| DO3MHA-11 | 2026-09-04 00:12:47 | 44.12678 | 11.95253 | 249° | 15km/h | 21574m | 6.0m/s | -56.1°C | 4.6% | 0hPa | 2.7V | 00:00:00 | 01:39:02 | 00:00:00 | |
| IW2NTF | 2026-09-04 00:12:44 | 44.12705 | 11.95269 | 187° | 16km/h | 21528m | 4.1m/s | -56.3°C | 4.6% | 0hPa | 2.6V | 08:30:00 | 01:38:53 | 00:00:00 | |
| DO3MHA-11 | 2026-09-04 00:12:37 | 44.12709 | 11.95269 | 187° | 7km/h | 21524m | 4.2m/s | -56.3°C | 4.6% | 0hPa | 2.6V | 00:00:00 | 01:38:52 | 00:00:00 | |
| IW2NTF | 2026-09-04 00:12:32 | 44.12725 | 11.95265 | 168° | 7km/h | 21478m | 5.2m/s | -56.7°C | 4.8% | 0hPa | 2.6V | 08:30:00 | 01:38:43 | 00:00:00 | |
| DO3MHA-11 | 2026-09-04 00:12:27 | 44.12727 | 11.95264 | 174° | 9km/h | 21473m | 5.6m/s | -56.7°C | 4.8% | 0hPa | 2.6V | 00:00:00 | 01:38:42 | 00:00:00 | |
| IW2NTF | 2026-09-04 00:12:19 | 44.12738 | 11.95246 | 62° | 13km/h | 21427m | 4.4m/s | -56.4°C | 4.8% | 0hPa | 2.6V | 08:30:00 | 01:38:33 | 00:00:00 | |
| DO3MHA-11 | 2026-09-04 00:12:17 | 44.12737 | 11.95243 | 67° | 7km/h | 21423m | 5.4m/s | -56.3°C | 4.8% | 0hPa | 2.6V | 00:00:00 | 01:38:32 | 08:30:00 | |
| IW2NTF | 2026-09-04 00:12:13 | 44.12737 | 11.95246 | 74° | 9km/h | 21375m | 4.1m/s | -56.2°C | 4.6% | 0hPa | 2.7V | 08:30:00 | 01:38:22 | 00:00:00 | |
| DO3MHA-11 | 2026-09-04 00:12:07 | 44.12737 | 11.95246 | 75° | 13km/h | 21375m | 4.0m/s | -56.2°C | 4.6% | 0hPa | 2.6V | 00:00:00 | 01:38:22 | 00:00:00 | |
| IW2NTF | 2026-09-04 00:12:00 | 44.12717 | 11.95210 | 0° | 5km/h | 21324m | 5.1m/s | -56.5°C | 4.7% | 0hPa | 2.6V | 08:30:00 | 01:38:12 | 00:00:00 | |
| DO3MHA-11 | 2026-09-04 00:11:57 | 44.12717 | 11.95210 | 1° | 18km/h | 21324m | 5.0m/s | -56.4°C | 4.7% | 0hPa | 2.7V | 00:00:00 | 01:38:12 | 00:00:00 | |
| IW2NTF | 2026-09-04 00:11:52 | 44.12690 | 11.95158 | 52° | 18km/h | 21276m | 5.7m/s | -56.6°C | 4.8% | 0hPa | 2.7V | 08:30:00 | 01:38:02 | 00:00:00 | |
| DO3MHA-11 | 2026-09-04 00:11:47 | 44.12690 | 11.95158 | 53° | 11km/h | 21276m | 5.6m/s | -56.6°C | 4.8% | 0hPa | 2.7V | 00:00:00 | 01:38:02 | 00:00:00 | |
| IW2NTF | 2026-09-04 00:11:40 | 44.12685 | 11.95116 | 115° | 11km/h | 21209m | 4.5m/s | -56.2°C | 4.5% | 0hPa | 2.7V | 08:30:00 | 01:37:49 | 00:00:00 | |
| DO3MHA-11 | 2026-09-04 00:11:37 | 44.12681 | 11.95128 | 110° | 9km/h | 21224m | 4.6m/s | -56.2°C | 4.5% | 0hPa | 2.7V | 00:00:00 | 01:37:52 | 00:00:00 | |
| DO3MHA-11 | 2026-09-04 00:11:27 | 44.12684 | 11.95100 | 130° | 9km/h | 21174m | 4.6m/s | -57.0°C | 4.7% | 0hPa | 2.7V | 00:00:00 | 01:37:42 | 00:00:00 | |
| DO3MHA-11 | 2026-09-04 00:11:17 | 44.12702 | 11.95080 | 144° | 7km/h | 21123m | 5.3m/s | -57.4°C | 4.9% | 0hPa | 2.7V | 00:00:00 | 01:37:32 | 00:00:00 | |
| DO3MHA-11 | 2026-09-04 00:11:07 | 44.12714 | 11.95059 | 152° | 5km/h | 21075m | 4.9m/s | 0°C | 0% | 0hPa | 2.6V | 00:00:00 | 01:37:22 | 00:00:00 | |
| DO3MHA-11 | 2026-09-04 00:10:57 | 44.12726 | 11.95063 | 183° | 4km/h | 21024m | 5.7m/s | 0°C | 0% | 0hPa | 2.6V | 00:00:00 | 01:37:12 | 00:00:00 | |
| DO3MHA-11 | 2026-09-04 00:10:47 | 44.12721 | 11.95063 | 212° | 5km/h | 20975m | 3.9m/s | 0°C | 0% | 0hPa | 2.6V | 00:00:00 | 01:37:02 | 08:30:00 | |
| IW2NTF | 2026-09-04 00:10:44 | 44.12727 | 11.95071 | 236° | 5km/h | 20945m | 5.4m/s | -57°C | 5% | 0hPa | 2.6V | 08:30:00 | 01:36:56 | 00:00:00 | |
| DO3MHA-11 | 2026-09-04 00:10:37 | 44.12727 | 11.95079 | 261° | 5km/h | 20923m | 4.6m/s | 0°C | 0% | 0hPa | 2.7V | 00:00:00 | 01:36:52 | 00:00:00 | |
| IW2NTF | 2026-09-04 00:10:33 | 44.12728 | 11.95091 | 286° | 2km/h | 20894m | 4.8m/s | -56.6°C | 4.8% | 0hPa | 2.7V | 08:30:00 | 01:36:46 | 00:00:00 | |
| DO3MHA-11 | 2026-09-04 00:10:27 | 44.12728 | 11.95097 | 241° | 9km/h | 20874m | 5.3m/s | 0°C | 0% | 0hPa | 2.7V | 00:00:00 | 01:36:42 | 00:00:00 | |
| IW2NTF | 2026-09-04 00:10:23 | 44.12735 | 11.95115 | 255° | 9km/h | 20844m | 5.7m/s | -56.2°C | 4.6% | 0hPa | 2.7V | 08:30:00 | 01:36:36 | 00:00:00 | |
| DO3MHA-11 | 2026-09-04 00:10:17 | 44.12734 | 11.95127 | 286° | 13km/h | 20823m | 4.6m/s | 0°C | 0% | 0hPa | 2.6V | 00:00:00 | 01:36:32 | 00:00:00 | |
| IW2NTF | 2026-09-04 00:10:12 | 44.12740 | 11.95149 | 230° | 15km/h | 20792m | 4.6m/s | -56.2°C | 4.7% | 0hPa | 2.6V | 08:30:00 | 01:36:26 | 00:00:00 | |
| DO3MHA-11 | 2026-09-04 00:10:07 | 44.12751 | 11.95161 | 219° | 16km/h | 20772m | 5.7m/s | 0°C | 0% | 0hPa | 2.7V | 00:00:00 | 01:36:22 | 00:00:00 | |
| IW2NTF | 2026-09-04 00:10:02 | 44.12773 | 11.95181 | 213° | 16km/h | 20741m | 5.6m/s | -56.4°C | 4.7% | 0hPa | 2.7V | 08:30:00 | 01:36:16 | 00:00:00 | |
| IW2NTF | 2026-09-04 00:09:56 | 44.12806 | 11.95189 | 145° | 13km/h | 20688m | 5.1m/s | -56.2°C | 4.6% | 0hPa | 2.6V | 08:30:00 | 01:36:06 | 00:00:00 | |
| IW2NTF | 2026-09-04 00:09:43 | 44.12831 | 11.95177 | 160° | 16km/h | 20636m | 5.4m/s | -56.4°C | 4.7% | 0hPa | 2.6V | 08:30:00 | 01:35:56 | 00:00:00 | |
| IW2NTF | 2026-09-04 00:09:34 | 44.12868 | 11.95154 | 169° | 13km/h | 20584m | 6.2m/s | -56.5°C | 4.7% | 0hPa | 2.7V | 08:30:00 | 01:35:46 | 00:00:00 | |
| IW2NTF | 2026-09-04 00:09:22 | 44.12893 | 11.95129 | 157° | 16km/h | 20531m | 5m/s | -56.4°C | 4.6% | 0hPa | 2.6V | 08:30:00 | 01:35:36 | 00:00:00 | |
| IW2NTF | 2026-09-04 00:09:17 | 44.12909 | 11.95124 | 207° | 11km/h | 20479m | 4.8m/s | -57°C | 4.9% | 0hPa | 2.6V | 08:30:00 | 01:35:26 | 00:00:00 | |
| DO3MHA-11 | 2026-09-04 00:09:07 | 44.12929 | 11.95130 | 190° | 15km/h | 20458m | 4.1m/s | 0°C | 0% | 0hPa | 2.7V | 00:00:00 | 01:35:22 | 00:00:00 | |
| IW2NTF | 2026-09-04 00:09:06 | 44.12945 | 11.95139 | 325° | 7km/h | 20428m | 5.9m/s | -56.8°C | 4.9% | 0hPa | 2.7V | 08:30:00 | 01:35:16 | 00:00:00 | |
| IW2NTF | 2026-09-04 00:08:54 | 44.12950 | 11.95152 | 207° | 2km/h | 20377m | 5.6m/s | -56.5°C | 4.8% | 0hPa | 2.7V | 08:30:00 | 01:35:06 | 00:00:00 | |
| IW2NTF | 2026-09-04 00:08:44 | 44.12933 | 11.95163 | 205° | 5km/h | 20324m | 6m/s | -56.6°C | 4.8% | 0hPa | 2.7V | 08:30:00 | 01:34:56 | 00:00:00 | |
| DO3MHA-11 | 2026-09-04 00:08:35 | 44.12933 | 11.95160 | 5° | 9km/h | 20293m | 5.9m/s | 0°C | 0% | 0hPa | 2.6V | 00:00:00 | 01:34:50 | 00:00:00 | |
| IW2NTF | 2026-09-04 00:08:32 | 44.12918 | 11.95161 | 337° | 13km/h | 20271m | 5m/s | -56.4°C | 4.8% | 0hPa | 2.6V | 08:30:00 | 01:34:46 | 00:00:00 | |
| IW2NTF | 2026-09-04 00:08:27 | 44.12905 | 11.95179 | 319° | 15km/h | 20219m | 5.9m/s | -56.1°C | 4.7% | 0hPa | 2.7V | 08:30:00 | 01:34:36 | 00:00:00 | |
| DO3MHA-11 | 2026-09-04 00:08:25 | 44.12912 | 11.95170 | 287° | 11km/h | 20240m | 3.7m/s | 0°C | 0% | 0hPa | 2.7V | 00:00:00 | 01:34:40 | 00:00:00 | |
| DO3MHA-11 | 2026-09-04 00:08:15 | 44.12895 | 11.95200 | 254° | 11km/h | 20189m | 5.5m/s | 0°C | 0% | 0hPa | 2.7V | 00:00:00 | 01:34:30 | 00:00:00 | |
| IW2NTF | 2026-09-04 00:08:12 | 44.12899 | 11.95214 | 267° | 7km/h | 20168m | 4.5m/s | -55.8°C | 4.7% | 0hPa | 2.7V | 08:30:00 | 01:34:26 | 00:00:00 | |
| IW2NTF | 2026-09-04 00:08:05 | 44.12887 | 11.95246 | 254° | 11km/h | 20116m | 5.6m/s | -55.5°C | 4.5% | 0hPa | 2.6V | 08:30:00 | 01:34:16 | 00:00:00 | |
| IW2NTF | 2026-09-04 00:07:52 | 44.12905 | 11.95277 | 257° | 9km/h | 20064m | 4.6m/s | -55.6°C | 4.5% | 0hPa | 2.6V | 08:30:00 | 01:34:06 | 00:00:00 | |
| IW2NTF | 2026-09-04 00:07:47 | 44.12926 | 11.95302 | 183° | 16km/h | 20013m | 4.7m/s | -55.6°C | 4.5% | 0hPa | 2.6V | 08:30:00 | 01:33:56 | 00:00:00 | |
| IW2NTF | 2026-09-04 00:07:35 | 44.12951 | 11.95311 | 220° | 13km/h | 19964m | 5.3m/s | -56.1°C | 4.7% | 0hPa | 2.6V | 08:30:00 | 01:33:46 | 00:00:00 | |
| IW2NTF | 2026-09-04 00:07:27 | 44.12978 | 11.95333 | 220° | 9km/h | 19913m | 5.9m/s | -56°C | 4.6% | 0hPa | 2.6V | 08:30:00 | 01:33:36 | 00:00:00 | |
| IW2NTF | 2026-09-04 00:07:14 | 44.13014 | 11.95365 | 218° | 18km/h | 19861m | 6m/s | -56°C | 4.6% | 0hPa | 2.6V | 08:30:00 | 01:33:26 | 00:00:00 | |
| IW2NTF | 2026-09-04 00:07:06 | 44.13052 | 11.95398 | 192° | 20km/h | 19810m | 5.7m/s | -56°C | 4.7% | 0hPa | 2.6V | 08:30:00 | 01:33:16 | 00:00:00 | |
| IW2NTF | 2026-09-04 00:06:55 | 44.13092 | 11.95424 | 209° | 20km/h | 19759m | 5.3m/s | -56.1°C | 4.8% | 0hPa | 2.7V | 08:30:00 | 01:33:06 | 00:00:00 | |
| IW2NTF | 2026-09-04 00:06:47 | 44.13128 | 11.95454 | 209° | 13km/h | 19707m | 4.2m/s | -56°C | 4.6% | 0hPa | 2.6V | 08:30:00 | 01:32:56 | 00:00:00 | |
| IW2NTF | 2026-09-04 00:06:37 | 44.13180 | 11.95454 | 183° | 20km/h | 19656m | 5.2m/s | -56°C | 4.5% | 0hPa | 2.6V | 08:30:00 | 01:32:46 | 00:00:00 | |
| IW2NTF | 2026-09-04 00:06:27 | 44.13219 | 11.95453 | 174° | 22km/h | 19604m | 5.7m/s | -56.6°C | 4.8% | 0hPa | 2.7V | 08:30:00 | 01:32:36 | 00:00:00 | |
| IW2NTF | 2026-09-04 00:06:18 | 44.13258 | 11.95426 | 142° | 18km/h | 19555m | 4.8m/s | -56.2°C | 4.6% | 0hPa | 2.7V | 08:30:00 | 01:32:26 | 00:00:00 | |
| IW2NTF | 2026-09-04 00:06:07 | 44.13311 | 11.95379 | 145° | 20km/h | 19505m | 5.4m/s | -56.5°C | 4.5% | 0hPa | 2.6V | 08:30:00 | 01:32:16 | 00:00:00 | |
| IW2NTF | 2026-09-04 00:05:56 | 44.13359 | 11.95355 | 168° | 35km/h | 19455m | 4.5m/s | -57.1°C | 4.8% | 0hPa | 2.6V | 08:30:00 | 01:32:06 | 00:00:00 | |
| IW2NTF | 2026-09-04 00:05:46 | 44.13422 | 11.95327 | 152° | 26km/h | 19406m | 5m/s | -57.4°C | 4.9% | 0hPa | 2.6V | 08:30:00 | 01:31:56 | 00:00:00 | |
| IW2NTF | 2026-09-04 00:05:36 | 44.13483 | 11.95299 | 150° | 20km/h | 19357m | 4.4m/s | -57.6°C | 5.1% | 0hPa | 2.6V | 08:30:00 | 01:31:46 | 00:00:00 | |
| IW2NTF | 2026-09-04 00:05:26 | 44.13531 | 11.95272 | 158° | 26km/h | 19307m | 5.7m/s | -57.7°C | 5% | 0hPa | 2.7V | 08:30:00 | 01:31:36 | 00:00:00 | |
| IW2NTF | 2026-09-04 00:05:16 | 44.13588 | 11.95224 | 142° | 24km/h | 19258m | 4.4m/s | -57.6°C | 4.9% | 0hPa | 2.7V | 08:30:00 | 01:31:26 | 00:00:00 | |
| IW2NTF | 2026-09-04 00:05:06 | 44.13649 | 11.95167 | 150° | 27km/h | 19206m | 4.2m/s | -57.5°C | 4.9% | 0hPa | 2.6V | 08:30:00 | 01:31:16 | 00:00:00 | |
| IW2NTF | 2026-09-04 00:04:56 | 44.13768 | 11.95078 | 152° | 26km/h | 19116m | 4.9m/s | -58°C | 5.2% | 0hPa | 2.6V | 08:30:00 | 01:30:58 | 00:00:00 | |
| IW2NTF | 2026-09-04 00:04:50 | 44.13801 | 11.95050 | 144° | 24km/h | 19086m | 4.1m/s | -57.8°C | 5.2% | 0hPa | 2.6V | 08:30:00 | 01:30:52 | 00:00:00 | |
| IW2NTF | 2026-09-04 00:04:33 | 44.13851 | 11.95011 | 157° | 20km/h | 19034m | 4.7m/s | -57.3°C | 5% | 0hPa | 2.6V | 08:30:00 | 01:30:42 | 00:00:00 | |
| IW2NTF | 2026-09-04 00:04:15 | 44.13917 | 11.94981 | 165° | 24km/h | 18959m | 5.3m/s | -56.7°C | 4.8% | 0hPa | 2.6V | 08:30:00 | 01:30:28 | 00:00:00 | |
| IW2NTF | 2026-09-04 00:04:07 | 44.13985 | 11.94977 | 195° | 18km/h | 18892m | 5.4m/s | -56.8°C | 4.8% | 0hPa | 2.7V | 08:30:00 | 01:30:15 | 00:00:00 | |
| IW2NTF | 2026-09-04 00:03:52 | 44.14060 | 11.94984 | 169° | 27km/h | 18830m | 5m/s | -56.8°C | 4.7% | 0hPa | 2.6V | 08:30:00 | 01:30:03 | 00:00:00 | |
| IW2NTF | 2026-09-04 00:03:41 | 44.14117 | 11.94965 | 144° | 26km/h | 18778m | 4.6m/s | -57°C | 4.8% | 0hPa | 2.6V | 08:30:00 | 01:29:53 | 00:00:00 | |
| IW2NTF | 2026-09-04 00:03:34 | 44.14185 | 11.94920 | 161° | 37km/h | 18726m | 5.5m/s | -57.3°C | 4.9% | 0hPa | 2.7V | 08:30:00 | 01:29:43 | 00:00:00 | |
| IW2NTF | 2026-09-04 00:03:21 | 44.14248 | 11.94863 | 140° | 29km/h | 18678m | 4.5m/s | -57.2°C | 4.9% | 0hPa | 2.6V | 08:30:00 | 01:29:33 | 00:00:00 | |
| IW2NTF | 2026-09-04 00:03:13 | 44.14327 | 11.94788 | 152° | 27km/h | 18620m | 5m/s | -57°C | 4.8% | 0hPa | 2.6V | 08:30:00 | 01:29:21 | 00:00:00 | |
| IW2NTF | 2026-09-04 00:03:00 | 44.14408 | 11.94751 | 155° | 37km/h | 18565m | 5.4m/s | -57.2°C | 4.8% | 0hPa | 2.7V | 08:30:00 | 01:29:10 | 00:00:00 | |
| IW2NTF | 2026-09-04 00:02:46 | 44.14493 | 11.94680 | 148° | 35km/h | 18508m | 4.7m/s | -57.6°C | 5% | 0hPa | 2.6V | 08:30:00 | 01:28:58 | 00:00:00 | |
| IW2NTF | 2026-09-04 00:02:34 | 44.14597 | 11.94603 | 151° | 37km/h | 18442m | 3.1m/s | -57.6°C | 5% | 0hPa | 2.6V | 08:30:00 | 01:28:44 | 00:00:00 | |
| IW2NTF | 2026-09-04 00:02:21 | 44.14683 | 11.94570 | 161° | 37km/h | 18395m | 5m/s | -57.9°C | 5.1% | 0hPa | 2.6V | 08:30:00 | 01:28:34 | 00:00:00 | |
| IW2NTF | 2026-09-04 00:02:14 | 44.14807 | 11.94511 | 151° | 46km/h | 18337m | 3.9m/s | -57.9°C | 5.1% | 0hPa | 2.7V | 08:30:00 | 01:28:22 | 00:00:00 | |
| IW2NTF | 2026-09-04 00:00:26 | 44.15721 | 11.93804 | 160° | 37km/h | 17800m | 4.7m/s | -59°C | 5.6% | 0hPa | 2.6V | 08:30:00 | 01:26:31 | 00:00:00 | |
| IW2NTF | 2026-09-04 00:00:10 | 44.15799 | 11.93755 | 153° | 49km/h | 17762m | 4.7m/s | -58.9°C | 5.6% | 0hPa | 2.6V | 08:30:00 | 01:26:23 | 00:00:00 | |
| IW2NTF | 2026-09-04 00:00:02 | 44.15909 | 11.93676 | 148° | 53km/h | 17711m | 3.3m/s | -58.7°C | 5.6% | 0hPa | 2.6V | 08:30:00 | 01:26:13 | 00:00:00 | |
| IW2NTF | 2026-09-03 23:59:49 | 44.16032 | 11.93577 | 151° | 64km/h | 17660m | 6.5m/s | -58.4°C | 5.4% | 0hPa | 2.6V | 08:30:00 | 01:26:03 | 00:00:00 | |
| IW2NTF | 2026-09-03 23:59:43 | 44.16167 | 11.93472 | 149° | 62km/h | 17611m | 4.6m/s | -58.8°C | 5.5% | 0hPa | 2.6V | 08:30:00 | 01:25:53 | 00:00:00 | |
| IW2NTF | 2026-09-03 23:59:31 | 44.16316 | 11.93358 | 148° | 66km/h | 17560m | 4.8m/s | -59.6°C | 5.8% | 0hPa | 2.7V | 08:30:00 | 01:25:43 | 00:00:00 | |
| IW2NTF | 2026-09-03 23:55:27 | 44.18070 | 11.90524 | 133° | 53km/h | 16352m | 4m/s | -60.4°C | 7.1% | 0hPa | 2.6V | 08:30:00 | 01:21:39 | 00:00:00 | |
| IW2NTF | 2026-09-03 23:55:15 | 44.18163 | 11.90391 | 129° | 49km/h | 16303m | 4.5m/s | -60.5°C | 7.2% | 0hPa | 2.6V | 08:30:00 | 01:21:29 | 00:00:00 | |
| IW2NTF | 2026-09-03 23:55:09 | 44.18246 | 11.90255 | 132° | 47km/h | 16257m | 4.5m/s | -60.3°C | 7.1% | 0hPa | 2.6V | 08:30:00 | 01:21:19 | 00:00:00 | |
| IW2NTF | 2026-09-03 23:54:55 | 44.18311 | 11.90114 | 123° | 46km/h | 16209m | 5.2m/s | -59.9°C | 6.9% | 0hPa | 2.6V | 08:30:00 | 01:21:09 | 00:00:00 | |
| IW2NTF | 2026-09-03 23:54:49 | 44.18374 | 11.89987 | 126° | 44km/h | 16162m | 4.7m/s | -59.9°C | 6.9% | 0hPa | 2.6V | 08:30:00 | 01:20:59 | 00:00:00 | |
| IW2NTF | 2026-09-03 23:54:37 | 44.18438 | 11.89839 | 128° | 37km/h | 16104m | 5.5m/s | -60°C | 7% | 0hPa | 2.6V | 08:30:00 | 01:20:47 | 00:00:00 | |
| IW2NTF | 2026-09-03 23:54:27 | 44.18496 | 11.89728 | 128° | 33km/h | 16057m | 4.9m/s | -59.8°C | 7% | 0hPa | 2.6V | 08:30:00 | 01:20:37 | 00:00:00 | |
| IW2NTF | 2026-09-03 23:54:16 | 44.18570 | 11.89620 | 136° | 35km/h | 16001m | 3.6m/s | -59.6°C | 6.7% | 0hPa | 2.7V | 08:30:00 | 01:20:25 | 00:00:00 | |
| IW2NTF | 2026-09-03 23:54:02 | 44.18660 | 11.89528 | 148° | 44km/h | 15946m | 5.8m/s | -59.6°C | 6.8% | 0hPa | 2.7V | 08:30:00 | 01:20:15 | 00:00:00 | |
| IW2NTF | 2026-09-03 23:53:41 | 44.18892 | 11.89327 | 147° | 60km/h | 15841m | 5.2m/s | -60.3°C | 7.1% | 0hPa | 2.6V | 08:30:00 | 01:19:53 | 00:00:00 | |
| IW2NTF | 2026-09-03 23:53:29 | 44.19015 | 11.89204 | 141° | 62km/h | 15793m | 5.4m/s | -60.3°C | 7% | 0hPa | 2.6V | 08:30:00 | 01:19:43 | 00:00:00 | |
| IW2NTF | 2026-09-03 23:53:21 | 44.19143 | 11.89071 | 140° | 62km/h | 15746m | 4.2m/s | -60.1°C | 7% | 0hPa | 2.6V | 08:30:00 | 01:19:33 | 00:00:00 | |
| IW2NTF | 2026-09-03 23:51:08 | 44.20890 | 11.87401 | 151° | 71km/h | 15076m | 3.6m/s | -59.8°C | 7.7% | 0hPa | 2.7V | 08:30:00 | 01:17:17 | 00:00:00 | |
| IW2NTF | 2026-09-03 23:50:55 | 44.21062 | 11.87268 | 151° | 73km/h | 15028m | 5.1m/s | -59.6°C | 7.5% | 0hPa | 2.7V | 08:30:00 | 01:17:07 | 00:00:00 | |
| IW2NTF | 2026-09-03 23:50:47 | 44.21227 | 11.87147 | 153° | 75km/h | 14979m | 5m/s | -60°C | 7.8% | 0hPa | 2.8V | 08:30:00 | 01:16:57 | 00:00:00 | |
| IW2NTF | 2026-09-03 23:50:37 | 44.21383 | 11.87017 | 147° | 73km/h | 14929m | 4.5m/s | -60.1°C | 8% | 0hPa | 2.8V | 08:30:00 | 01:16:47 | 00:00:00 | |
| IW2NTF | 2026-09-03 23:50:27 | 44.21536 | 11.86878 | 145° | 73km/h | 14882m | 5.4m/s | -60.4°C | 8.2% | 0hPa | 2.8V | 08:30:00 | 01:16:37 | 00:00:00 | |
| IW2NTF | 2026-09-03 23:50:15 | 44.21688 | 11.86736 | 148° | 64km/h | 14834m | 4.8m/s | -60.2°C | 8.4% | 0hPa | 2.7V | 08:30:00 | 01:16:27 | 00:00:00 | |
| IW2NTF | 2026-09-03 23:50:05 | 44.21824 | 11.86625 | 153° | 68km/h | 14787m | 4.1m/s | -60.6°C | 9.2% | 0hPa | 2.7V | 08:30:00 | 01:16:17 | 00:00:00 | |
| IW2NTF | 2026-09-03 23:49:50 | 44.22033 | 11.86474 | 155° | 69km/h | 14721m | 4.3m/s | -61°C | 10% | 0hPa | 2.8V | 08:30:00 | 01:16:03 | 00:00:00 | |
| IW2NTF | 2026-09-03 23:49:41 | 44.22241 | 11.86337 | 151° | 82km/h | 14665m | 5.5m/s | -61.4°C | 10.7% | 0hPa | 2.8V | 08:30:00 | 01:15:51 | 00:00:00 | |
| IW2NTF | 2026-09-03 23:49:29 | 44.22412 | 11.86187 | 144° | 80km/h | 14618m | 4m/s | -61.3°C | 10.9% | 0hPa | 2.7V | 08:30:00 | 01:15:41 | 00:00:00 | |
| IW2NTF | 2026-09-03 23:49:21 | 44.22583 | 11.86031 | 143° | 78km/h | 14574m | 4.2m/s | -61.1°C | 10.9% | 0hPa | 2.7V | 08:30:00 | 01:15:31 | 00:00:00 | |
| IW2NTF | 2026-09-03 23:49:05 | 44.22768 | 11.85839 | 146° | 71km/h | 14521m | 4.1m/s | -61.4°C | 11.7% | 0hPa | 2.7V | 08:30:00 | 01:15:19 | 00:00:00 | |
| IW2NTF | 2026-09-03 23:48:55 | 44.22926 | 11.85705 | 148° | 80km/h | 14475m | 4.8m/s | -61.4°C | 11.8% | 0hPa | 2.7V | 08:30:00 | 01:15:09 | 00:00:00 | |
| IW2NTF | 2026-09-03 23:48:45 | 44.23104 | 11.85520 | 142° | 75km/h | 14423m | 5.1m/s | -61.2°C | 12% | 0hPa | 2.7V | 08:30:00 | 01:14:57 | 00:00:00 | |
| IW2NTF | 2026-09-03 23:48:37 | 44.23253 | 11.85365 | 143° | 69km/h | 14380m | 5.4m/s | -61.3°C | 12.9% | 0hPa | 2.8V | 08:30:00 | 01:14:47 | 00:00:00 | |
| IW2NTF | 2026-09-03 23:48:15 | 44.23520 | 11.85134 | 152° | 69km/h | 14300m | 3.4m/s | -62°C | 15.2% | 0hPa | 2.7V | 08:30:00 | 01:14:29 | 00:00:00 | |
| IW2NTF | 2026-09-03 23:48:02 | 44.23740 | 11.85007 | 156° | 77km/h | 14241m | 4.1m/s | -62.1°C | 17.3% | 0hPa | 2.7V | 08:30:00 | 01:14:16 | 00:00:00 | |
| IW2NTF | 2026-09-03 23:47:55 | 44.23926 | 11.84893 | 158° | 82km/h | 14195m | 3.8m/s | -62.4°C | 19.3% | 0hPa | 2.7V | 08:30:00 | 01:14:06 | 00:00:00 | |
| IW2NTF | 2026-09-03 23:47:30 | 44.24414 | 11.84560 | 151° | 95km/h | 14090m | 4.2m/s | -63.5°C | 26.2% | 0hPa | 2.7V | 08:30:00 | 01:13:42 | 00:00:00 | |
| IW2NTF | 2026-09-03 23:47:19 | 44.24666 | 11.84354 | 149° | 100km/h | 14038m | 3.4m/s | -64.2°C | 30.1% | 0hPa | 2.7V | 08:30:00 | 01:13:30 | 00:00:00 | |
| IW2NTF | 2026-09-03 23:47:05 | 44.24899 | 11.84171 | 149° | 95km/h | 13988m | 5.1m/s | -64.3°C | 33.7% | 0hPa | 2.8V | 08:30:00 | 01:13:19 | 00:00:00 | |
| IW2NTF | 2026-09-03 23:46:59 | 44.25101 | 11.84008 | 150° | 89km/h | 13940m | 5.3m/s | -64.2°C | 36.4% | 0hPa | 2.7V | 08:30:00 | 01:13:09 | 00:00:00 | |
| IW2NTF | 2026-09-03 23:46:45 | 44.25325 | 11.83809 | 149° | 84km/h | 13883m | 5m/s | -64.3°C | 39.2% | 0hPa | 2.8V | 08:30:00 | 01:12:57 | 00:00:00 | |
| IW2NTF | 2026-09-03 23:46:33 | 44.25557 | 11.83637 | 154° | 89km/h | 13829m | 4.9m/s | -64.7°C | 46.2% | 0hPa | 2.7V | 08:30:00 | 01:12:45 | 00:00:00 | |
| IW2NTF | 2026-09-03 23:46:25 | 44.25763 | 11.83494 | 153° | 88km/h | 13784m | 4.3m/s | -64.4°C | 49.3% | 0hPa | 2.7V | 08:30:00 | 01:12:35 | 00:00:00 | |
| IW2NTF | 2026-09-03 23:46:13 | 44.25951 | 11.83362 | 153° | 82km/h | 13737m | 6m/s | -64.6°C | 51.8% | 0hPa | 2.7V | 08:30:00 | 01:12:25 | 00:00:00 | |
| IW2NTF | 2026-09-03 23:45:02 | 44.27610 | 11.82710 | 172° | 100km/h | 13390m | 5.1m/s | -65.8°C | 65.8% | 0hPa | 2.8V | 08:30:00 | 01:11:12 | 00:00:00 | |
| IW2NTF | 2026-09-03 23:44:48 | 44.27992 | 11.82640 | 172° | 115km/h | 13308m | 6.6m/s | -65.9°C | 59.2% | 0hPa | 2.8V | 08:30:00 | 01:10:58 | 00:00:00 | |
| IW2NTF | 2026-09-03 23:44:38 | 44.28294 | 11.82582 | 171° | 122km/h | 13252m | 3.8m/s | -65.7°C | 56.7% | 0hPa | 2.8V | 08:30:00 | 01:10:48 | 00:00:00 | |
| IW2NTF | 2026-09-03 23:42:19 | 44.32452 | 11.80717 | 159° | 119km/h | 12574m | 3.4m/s | -61.3°C | 58.4% | 0hPa | 2.7V | 08:30:00 | 01:08:29 | 00:00:00 | |
| IW2NTF | 2026-09-03 23:42:01 | 44.32994 | 11.80451 | 161° | 120km/h | 12496m | 5m/s | -60.7°C | 56.5% | 0hPa | 2.7V | 08:30:00 | 01:08:10 | 00:00:00 | |
| IW2NTF | 2026-09-03 23:40:28 | 44.35568 | 11.79172 | 159° | 110km/h | 12115m | 5.5m/s | -57.9°C | 65.2% | 0hPa | 2.8V | 08:30:00 | 01:06:37 | 00:00:00 | |
| IW2NTF | 2026-09-03 23:40:12 | 44.35827 | 11.79047 | 159° | 104km/h | 12072m | 4.6m/s | -57.5°C | 64.7% | 0hPa | 2.7V | 08:30:00 | 01:06:27 | 00:00:00 | |
| IW2NTF | 2026-09-03 23:37:43 | 44.39717 | 11.77278 | 158° | 102km/h | 11388m | 3.8m/s | -51.8°C | 66% | 0hPa | 2.8V | 08:30:00 | 01:03:54 | 00:00:00 | |
| IW2NTF | 2026-09-03 23:37:29 | 44.39986 | 11.77131 | 158° | 97km/h | 11340m | 2.6m/s | -51.4°C | 69.2% | 0hPa | 2.9V | 08:30:00 | 01:03:43 | 00:00:00 | |
| IW2NTF | 2026-09-03 23:35:59 | 44.42110 | 11.75982 | 163° | 95km/h | 10921m | 5.7m/s | -47.9°C | 61.6% | 0hPa | 2.8V | 08:30:00 | 01:02:13 | 00:00:00 | |
| IW2NTF | 2026-09-03 23:35:51 | 44.42330 | 11.75881 | 161° | 93km/h | 10871m | 4.1m/s | -47.4°C | 62% | 0hPa | 2.9V | 08:30:00 | 01:02:03 | 00:00:00 | |
| IW2NTF | 2026-09-03 23:35:43 | 44.42554 | 11.75773 | 161° | 102km/h | 10822m | 7m/s | -46.9°C | 58.4% | 0hPa | 2.9V | 08:30:00 | 01:01:53 | 00:00:00 | |
| IW2NTF | 2026-09-03 23:35:32 | 44.42776 | 11.75663 | 162° | 93km/h | 10769m | 4.8m/s | -46.4°C | 55.4% | 0hPa | 2.8V | 08:30:00 | 01:01:43 | 00:00:00 | |
| IW2NTF | 2026-09-03 23:35:17 | 44.43039 | 11.75535 | 162° | 89km/h | 10707m | 5.4m/s | -45.9°C | 52.1% | 0hPa | 2.8V | 08:30:00 | 01:01:31 | 00:00:00 | |
| IW2NTF | 2026-09-03 23:31:44 | 44.47604 | 11.72873 | 151° | 77km/h | 9616m | 5.7m/s | -36.2°C | 55.4% | 0hPa | 2.8V | 08:30:00 | 00:57:55 | 00:00:00 | |
| IW2NTF | 2026-09-03 23:31:31 | 44.47842 | 11.72681 | 150° | 75km/h | 9545m | 3.6m/s | -35.6°C | 53.4% | 0hPa | 2.8V | 08:30:00 | 00:57:41 | 00:00:00 | |
| IW2NTF | 2026-09-03 23:31:21 | 44.48016 | 11.72558 | 151° | 73km/h | 9495m | 6.8m/s | -35.1°C | 51.9% | 0hPa | 2.9V | 08:30:00 | 00:57:31 | 00:00:00 | |
| IW2NTF | 2026-09-03 23:31:01 | 44.48358 | 11.72323 | 151° | 75km/h | 9394m | 3.5m/s | -34.1°C | 48.9% | 0hPa | 2.8V | 08:30:00 | 00:57:11 | 00:00:00 | |
| IW2NTF | 2026-09-03 23:30:51 | 44.48529 | 11.72200 | 156° | 75km/h | 9344m | 6.6m/s | -33.6°C | 46% | 0hPa | 2.9V | 08:30:00 | 00:57:01 | 00:00:00 | |
| IW2NTF | 2026-09-03 23:30:41 | 44.48708 | 11.72078 | 155° | 82km/h | 9299m | 3.6m/s | -33.3°C | 47.1% | 0hPa | 2.9V | 08:30:00 | 00:56:51 | 00:00:00 | |
| IW2NTF | 2026-09-03 23:30:31 | 44.48882 | 11.71963 | 151° | 73km/h | 9251m | 3.1m/s | -32.9°C | 45.7% | 0hPa | 2.9V | 08:30:00 | 00:56:41 | 00:00:00 | |
| IW2NTF | 2026-09-03 23:29:11 | 44.50177 | 11.71177 | 154° | 78km/h | 8895m | 7.4m/s | -29.8°C | 48.6% | 0hPa | 2.9V | 08:30:00 | 00:55:26 | 00:00:00 | |
| IW2NTF | 2026-09-03 23:29:01 | 44.50401 | 11.71047 | 154° | 82km/h | 8840m | 4.9m/s | -29.5°C | 55.1% | 0hPa | 2.9V | 08:30:00 | 00:55:14 | 00:00:00 | |
| IW2NTF | 2026-09-03 23:28:51 | 44.50589 | 11.70938 | 156° | 82km/h | 8791m | 2.6m/s | -29.1°C | 54% | 0hPa | 2.9V | 08:30:00 | 00:55:04 | 00:00:00 | |
| IW2NTF | 2026-09-03 23:28:41 | 44.50776 | 11.70819 | 155° | 78km/h | 8740m | 5.1m/s | -28.7°C | 55.2% | 0hPa | 2.9V | 08:30:00 | 00:54:54 | 00:00:00 | |
| IW2NTF | 2026-09-03 23:28:31 | 44.50956 | 11.70716 | 156° | 80km/h | 8696m | 5m/s | -28.4°C | 55.7% | 0hPa | 2.9V | 08:30:00 | 00:54:44 | 00:00:00 | |
| IW2NTF | 2026-09-03 23:28:21 | 44.51136 | 11.70608 | 157° | 77km/h | 8647m | 5.2m/s | -28°C | 55% | 0hPa | 2.8V | 08:30:00 | 00:54:34 | 00:00:00 | |
| IW2NTF | 2026-09-03 23:27:41 | 44.51881 | 11.70188 | 161° | 71km/h | 8446m | 5.6m/s | -26.4°C | 56% | 0hPa | 2.9V | 08:30:00 | 00:53:51 | 00:00:00 | |
| IW2NTF | 2026-09-03 23:27:31 | 44.52045 | 11.70089 | 161° | 68km/h | 8399m | 5.8m/s | -26.1°C | 57.7% | 0hPa | 2.9V | 08:30:00 | 00:53:41 | 00:00:00 | |
| IW2NTF | 2026-09-03 23:27:13 | 44.52345 | 11.69921 | 155° | 73km/h | 8314m | 6.3m/s | -25.3°C | 55.4% | 0hPa | 2.9V | 08:30:00 | 00:53:23 | 00:00:00 | |
| IW2NTF | 2026-09-03 23:27:03 | 44.52512 | 11.69829 | 162° | 71km/h | 8266m | 6.8m/s | -24.9°C | 53.4% | 0hPa | 2.9V | 08:30:00 | 00:53:13 | 00:00:00 | |
| IW2NTF | 2026-09-03 23:26:53 | 44.52682 | 11.69740 | 155° | 69km/h | 8219m | 5.1m/s | -24.5°C | 53.3% | 0hPa | 2.9V | 08:30:00 | 00:53:03 | 00:00:00 | |
| IW2NTF | 2026-09-03 23:26:43 | 44.52843 | 11.69644 | 155° | 69km/h | 8172m | 5.8m/s | -24.1°C | 54.8% | 0hPa | 2.9V | 08:30:00 | 00:52:53 | 00:00:00 | |
| IW2NTF | 2026-09-03 23:26:33 | 44.53003 | 11.69546 | 156° | 64km/h | 8127m | 3.3m/s | -23.8°C | 54.1% | 0hPa | 2.9V | 08:30:00 | 00:52:43 | 00:00:00 | |
| IW2NTF | 2026-09-03 23:26:24 | 44.53156 | 11.69445 | 147° | 68km/h | 8083m | 6.3m/s | -23.5°C | 56.7% | 0hPa | 2.8V | 08:30:00 | 00:52:33 | 00:00:00 | |
| IW2NTF | 2026-09-03 23:26:13 | 44.53307 | 11.69339 | 155° | 60km/h | 8032m | 5.8m/s | -23.1°C | 57.5% | 0hPa | 2.9V | 08:30:00 | 00:52:23 | 00:00:00 | |
| IW2NTF | 2026-09-03 23:26:03 | 44.53453 | 11.69227 | 155° | 60km/h | 7981m | 5.1m/s | -22.8°C | 58% | 0hPa | 2.9V | 08:30:00 | 00:52:13 | 00:00:00 | |
| IW2NTF | 2026-09-03 23:25:53 | 44.53598 | 11.69121 | 152° | 68km/h | 7931m | 4.6m/s | -22.4°C | 57.8% | 0hPa | 2.9V | 08:30:00 | 00:52:03 | 00:00:00 | |
| IW2NTF | 2026-09-03 23:25:43 | 44.53749 | 11.69015 | 152° | 68km/h | 7879m | 5.5m/s | -22.2°C | 62.4% | 0hPa | 2.8V | 08:30:00 | 00:51:53 | 00:00:00 | |
| IW2NTF | 2026-09-03 23:25:33 | 44.53894 | 11.68916 | 151° | 55km/h | 7829m | 6.3m/s | -21.9°C | 63.2% | 0hPa | 2.9V | 00:00:00 | 00:51:43 | 00:00:00 | |
| IW2NTF | 2026-09-03 23:25:23 | 44.54031 | 11.68819 | 155° | 68km/h | 7778m | 5m/s | -21.5°C | 61.2% | 0hPa | 2.8V | 00:00:00 | 00:51:33 | 00:00:00 | |
| IW2NTF | 2026-09-03 23:25:13 | 44.54169 | 11.68712 | 154° | 62km/h | 7736m | 4.2m/s | -21.1°C | 60.6% | 0hPa | 2.9V | 00:00:00 | 00:51:23 | 00:00:00 | |
| IW2NTF | 2026-09-03 23:25:03 | 44.54312 | 11.68606 | 152° | 66km/h | 7686m | 3.8m/s | -20.8°C | 59.9% | 0hPa | 2.9V | 00:00:00 | 00:51:13 | 00:00:00 | |
| IW2NTF | 2026-09-03 23:24:53 | 44.54457 | 11.68506 | 146° | 64km/h | 7636m | 4m/s | -20.4°C | 60.9% | 0hPa | 2.9V | 00:00:00 | 00:51:03 | 00:00:00 | |
| IW2NTF | 2026-09-03 23:14:30 | 44.62767 | 11.63650 | 162° | 33km/h | 4339m | 3.9m/s | 0.5°C | 48.6% | 0hPa | 3V | 00:00:00 | 00:40:42 | 00:00:00 | |
| IW2NTF | 2026-09-03 23:14:24 | 44.62807 | 11.63620 | 153° | 37km/h | 4316m | 3.7m/s | 0.7°C | 50.5% | 0hPa | 3V | 00:00:00 | 00:40:36 | 00:00:00 | |
| IW2NTF | 2026-09-03 23:13:49 | 44.63096 | 11.63496 | 163° | 37km/h | 4127m | 5.2m/s | 1.8°C | 48% | 0hPa | 3V | 00:00:00 | 00:40:02 | 00:00:00 | |
| IW2NTF | 2026-09-03 23:13:42 | 44.63155 | 11.63469 | 158° | 33km/h | 4096m | 3.1m/s | 0°C | 0% | 0hPa | 3V | 00:00:00 | 00:39:56 | 00:00:00 | |
| IW2NTF | 2026-09-03 23:13:36 | 44.63202 | 11.63449 | 162° | 37km/h | 4066m | 6.2m/s | 0°C | 0% | 0hPa | 3V | 00:00:00 | 00:39:50 | 00:00:00 | |
| IW2NTF | 2026-09-03 23:13:31 | 44.63259 | 11.63426 | 157° | 46km/h | 4033m | 3.8m/s | 0°C | 0% | 0hPa | 3V | 00:00:00 | 00:39:44 | 00:00:00 | |
| IW2NTF | 2026-09-03 23:13:25 | 44.63321 | 11.63394 | 152° | 35km/h | 4002m | 4.7m/s | 0°C | 0% | 0hPa | 3V | 00:00:00 | 00:39:38 | 00:00:00 | |
| IW2NTF | 2026-09-03 23:13:18 | 44.63364 | 11.63371 | 162° | 35km/h | 3975m | 5.9m/s | 0°C | 0% | 0hPa | 3V | 00:00:00 | 00:39:32 | 00:00:00 | |
| IW2NTF | 2026-09-03 23:13:12 | 44.63435 | 11.63348 | 170° | 33km/h | 3926m | 4.7m/s | 0°C | 0% | 0hPa | 3V | 00:00:00 | 00:39:24 | 00:00:00 | |
| IW2NTF | 2026-09-03 23:13:06 | 44.63481 | 11.63344 | 190° | 27km/h | 3896m | 4m/s | 0°C | 0% | 0hPa | 3V | 00:00:00 | 00:39:18 | 00:00:00 | |
| IW2NTF | 2026-09-03 23:13:00 | 44.63526 | 11.63348 | 178° | 33km/h | 3865m | 6.8m/s | 0°C | 0% | 0hPa | 3V | 00:00:00 | 00:39:12 | 00:00:00 | |
| IW2NTF | 2026-09-03 23:12:54 | 44.63573 | 11.63344 | 180° | 24km/h | 3832m | 4.2m/s | 0°C | 0% | 0hPa | 3V | 00:00:00 | 00:39:06 | 00:00:00 | |
| IW2NTF | 2026-09-03 23:12:48 | 44.63604 | 11.63355 | 204° | 18km/h | 3805m | 6.3m/s | 0°C | 0% | 0hPa | 3V | 00:00:00 | 00:39:00 | 00:00:00 | |
| IW2NTF | 2026-09-03 23:12:42 | 44.63635 | 11.63366 | 187° | 29km/h | 3771m | 6.7m/s | 0°C | 0% | 0hPa | 3V | 00:00:00 | 00:38:54 | 00:00:00 | |
| IW2NTF | 2026-09-03 23:12:36 | 44.63697 | 11.63375 | 183° | 31km/h | 3721m | 7.8m/s | 0°C | 0% | 0hPa | 3V | 00:00:00 | 00:38:46 | 00:00:00 | |
| IW2NTF | 2026-09-03 23:12:30 | 44.63742 | 11.63371 | 177° | 37km/h | 3690m | 5.4m/s | 0°C | 0% | 0hPa | 3V | 00:00:00 | 00:38:40 | 00:00:00 | |
| IW2NTF | 2026-09-03 23:12:24 | 44.63797 | 11.63383 | 188° | 31km/h | 3667m | 4.7m/s | 0°C | 0% | 0hPa | 3V | 00:00:00 | 00:38:34 | 00:00:00 | |
| IW2NTF | 2026-09-03 23:12:18 | 44.63839 | 11.63380 | 188° | 22km/h | 3632m | 5m/s | 0°C | 0% | 0hPa | 3V | 00:00:00 | 00:38:28 | 00:00:00 | |
| IW2NTF | 2026-09-03 23:12:12 | 44.63877 | 11.63399 | 188° | 24km/h | 3602m | 5.5m/s | 0°C | 0% | 0hPa | 3V | 00:00:00 | 00:38:22 | 00:00:00 |